Time;durP1;ratioP1;P1;durP2;ratioP2;P2;SDS_P1;SDS_P2;PMS_P1;PMS_P2;Temp;Humidity;BMP_temperature;BMP_pressure;BME280_temperature;BME280_humidity;BME280_pressure;Samples;Min_cycle;Max_cycle;Signal;HPM_P1;HPM_P2
2022/04/10 00:01:21;;;;;;;33.70;16.97;;;;;;;;;;5117026;28;20230;-59
2022/04/10 00:03:48;;;;;;;32.93;15.73;;;;;;;;;;5116740;28;20204;-59
2022/04/10 00:06:16;;;;;;;30.13;15.93;;;;;;;;;;5116640;28;20692;-58
2022/04/10 00:08:43;;;;;;;29.13;15.70;;;;;;;;;;5117135;28;20206;-59
2022/04/10 00:11:10;;;;;;;42.43;21.23;;;;;;;;;;5116867;28;20270;-60
2022/04/10 00:13:39;;;;;;;46.93;25.03;;;;;;;;;;5116722;27;20281;-59
2022/04/10 00:16:07;;;;;;;38.10;16.67;;;;;;;;;;5116717;28;20282;-59
2022/04/10 00:18:36;;;;;;;39.23;16.57;;;;;;;;;;5116497;28;20232;-59
2022/04/10 00:21:05;;;;;;;29.17;14.43;;;;;;;;;;5116870;28;20305;-59
2022/04/10 00:23:32;;;;;;;32.50;16.23;;;;;;;;;;5116565;28;20198;-59
2022/04/10 00:25:59;;;;;;;43.27;16.93;;;;;;;;;;5116598;28;20202;-59
2022/04/10 00:28:27;;;;;;;33.17;16.50;;;;;;;;;;5116276;27;20255;-59
2022/04/10 00:30:54;;;;;;;38.63;16.50;;;;;;;;;;5116684;28;20233;-60
2022/04/10 00:33:22;;;;;;;46.87;22.47;;;;;;;;;;5116366;28;20531;-58
2022/04/10 00:35:49;;;;;;;35.37;16.00;;;;;;;;;;5116767;28;20285;-59
2022/04/10 00:38:16;;;;;;;33.40;15.80;;;;;;;;;;5115284;28;20205;-57
2022/04/10 00:40:43;;;;;;;40.83;16.60;;;;;;;;;;5116111;28;20671;-59
2022/04/10 00:43:11;;;;;;;38.43;16.90;;;;;;;;;;5115333;28;20229;-59
2022/04/10 00:45:38;;;;;;;34.93;15.67;;;;;;;;;;5116159;28;20277;-59
2022/04/10 00:48:06;;;;;;;35.60;14.70;;;;;;;;;;5116585;28;20198;-60
2022/04/10 00:50:33;;;;;;;39.77;16.17;;;;;;;;;;5114171;28;20687;-59
2022/04/10 00:53:00;;;;;;;102.90;33.97;;;;;;;;;;5115106;28;20202;-59
2022/04/10 00:55:27;;;;;;;67.10;54.67;;;;;;;;;;5115030;28;20198;-59
2022/04/10 00:57:54;;;;;;;44.00;18.80;;;;;;;;;;5098181;28;20212;-60
2022/04/10 01:00:21;;;;;;;35.93;15.27;;;;;;;;;;5115555;28;20282;-59
2022/04/10 01:02:49;;;;;;;34.87;14.30;;;;;;;;;;5116121;28;20202;-59
2022/04/10 01:05:17;;;;;;;30.40;13.27;;;;;;;;;;5114987;28;20677;-60
2022/04/10 01:07:44;;;;;;;24.87;13.83;;;;;;;;;;5115579;28;20217;-60
2022/04/10 01:10:11;;;;;;;28.13;12.57;;;;;;;;;;5097914;28;20263;-59
2022/04/10 01:12:40;;;;;;;30.33;15.07;;;;;;;;;;5115790;28;20624;-60
2022/04/10 01:15:12;;;;;;;40.70;17.40;;;;;;;;;;5099278;28;20580;-60
2022/04/10 01:17:44;;;;;;;46.67;19.83;;;;;;;;;;5114964;28;20274;-59
2022/04/10 01:20:13;;;;;;;37.40;15.47;;;;;;;;;;5114610;28;20349;-59
2022/04/10 01:22:44;;;;;;;48.57;18.13;;;;;;;;;;5114673;28;20202;-58
2022/04/10 01:25:12;;;;;;;35.73;16.57;;;;;;;;;;5114472;28;20360;-59
2022/04/10 01:27:44;;;;;;;44.67;18.00;;;;;;;;;;5114419;28;20197;-59
2022/04/10 01:30:14;;;;;;;34.80;16.00;;;;;;;;;;5114369;28;20245;-60
2022/04/10 01:32:44;;;;;;;44.20;19.20;;;;;;;;;;5114505;28;20293;-59
2022/04/10 01:35:11;;;;;;;41.90;17.20;;;;;;;;;;5114629;28;20205;-59
2022/04/10 01:37:39;;;;;;;33.77;25.37;;;;;;;;;;5114566;28;20197;-58
2022/04/10 01:40:10;;;;;;;40.63;19.07;;;;;;;;;;5115991;28;20241;-59
2022/04/10 01:42:38;;;;;;;43.37;16.67;;;;;;;;;;5114250;28;20198;-59
2022/04/10 01:45:06;;;;;;;36.87;16.13;;;;;;;;;;5114456;28;20206;-60
2022/04/10 01:47:34;;;;;;;37.07;16.40;;;;;;;;;;5114195;28;20210;-59
2022/04/10 01:50:01;;;;;;;42.93;15.90;;;;;;;;;;5115028;28;20205;-59
2022/04/10 01:52:28;;;;;;;29.27;14.00;;;;;;;;;;5114187;28;20259;-59
2022/04/10 01:54:56;;;;;;;38.57;17.60;;;;;;;;;;5114085;28;20281;-59
2022/04/10 01:57:25;;;;;;;52.07;18.63;;;;;;;;;;5114381;28;20198;-59
2022/04/10 01:59:52;;;;;;;48.20;21.53;;;;;;;;;;5114326;28;20197;-59
2022/04/10 02:02:19;;;;;;;39.03;16.07;;;;;;;;;;5118095;28;20646;-59
2022/04/10 02:04:47;;;;;;;40.17;15.73;;;;;;;;;;5118277;28;20206;-58
2022/04/10 02:07:14;;;;;;;35.37;15.17;;;;;;;;;;5118732;28;20201;-59
2022/04/10 02:09:42;;;;;;;28.93;14.93;;;;;;;;;;5118446;28;20232;-59
2022/04/10 02:12:10;;;;;;;31.00;15.30;;;;;;;;;;5118012;28;20709;-60
2022/04/10 02:14:37;;;;;;;40.53;16.70;;;;;;;;;;5119291;28;20225;-59
2022/04/10 02:17:05;;;;;;;49.40;18.93;;;;;;;;;;5117819;28;20732;-59
2022/04/10 02:19:32;;;;;;;104.67;45.93;;;;;;;;;;5118163;28;20344;-59
2022/04/10 02:22:01;;;;;;;57.77;40.43;;;;;;;;;;5118077;28;20241;-59
2022/04/10 02:24:28;;;;;;;40.37;17.10;;;;;;;;;;5118008;28;20283;-59
2022/04/10 02:26:56;;;;;;;30.03;14.43;;;;;;;;;;5118943;28;20198;-60
2022/04/10 02:29:23;;;;;;;31.40;14.60;;;;;;;;;;5118057;28;20205;-60
2022/04/10 02:31:50;;;;;;;31.23;14.17;;;;;;;;;;5117800;28;20321;-59
2022/04/10 02:34:18;;;;;;;32.07;15.03;;;;;;;;;;5117653;28;20213;-58
2022/04/10 02:36:45;;;;;;;29.20;13.73;;;;;;;;;;5117791;28;20241;-59
2022/04/10 02:39:12;;;;;;;33.10;14.27;;;;;;;;;;5117777;28;20281;-59
2022/04/10 02:41:40;;;;;;;63.53;27.23;;;;;;;;;;5118320;28;20316;-59
2022/04/10 02:44:08;;;;;;;38.83;16.97;;;;;;;;;;5117554;28;20206;-59
2022/04/10 02:46:35;;;;;;;32.40;15.20;;;;;;;;;;5118547;28;20277;-59
2022/04/10 02:49:02;;;;;;;25.80;13.13;;;;;;;;;;5117660;28;20201;-59
2022/04/10 02:51:29;;;;;;;27.13;12.50;;;;;;;;;;5117566;28;20206;-59
2022/04/10 02:53:57;;;;;;;27.60;13.10;;;;;;;;;;5117499;28;20280;-59
2022/04/10 02:56:24;;;;;;;26.97;12.97;;;;;;;;;;5117684;28;20383;-59
2022/04/10 02:58:51;;;;;;;29.37;11.87;;;;;;;;;;5118056;28;20749;-59
2022/04/10 03:01:19;;;;;;;33.37;14.60;;;;;;;;;;5117031;28;20748;-59
2022/04/10 03:03:47;;;;;;;34.33;18.23;;;;;;;;;;5117153;28;20620;-59
2022/04/10 03:06:14;;;;;;;25.63;13.17;;;;;;;;;;5117010;28;20251;-59
2022/04/10 03:08:41;;;;;;;29.07;13.37;;;;;;;;;;5118150;28;20281;-59
2022/04/10 03:11:08;;;;;;;26.70;12.63;;;;;;;;;;5117179;28;20313;-58
2022/04/10 03:13:36;;;;;;;31.10;13.83;;;;;;;;;;5115945;28;20208;-59
2022/04/10 03:16:06;;;;;;;35.63;14.33;;;;;;;;;;5117095;28;20284;-59
2022/04/10 03:18:34;;;;;;;35.93;14.00;;;;;;;;;;5116788;28;20234;-59
2022/04/10 03:21:03;;;;;;;40.73;18.33;;;;;;;;;;5116956;28;20225;-59
2022/04/10 03:23:30;;;;;;;57.57;39.87;;;;;;;;;;5117400;28;20300;-58
2022/04/10 03:25:57;;;;;;;31.20;13.30;;;;;;;;;;5116428;28;20206;-58
2022/04/10 03:28:24;;;;;;;35.50;14.40;;;;;;;;;;5116349;28;20206;-59
2022/04/10 03:30:53;;;;;;;32.10;12.80;;;;;;;;;;5116512;28;20230;-59
2022/04/10 03:33:20;;;;;;;27.13;12.83;;;;;;;;;;5116292;28;20202;-59
2022/04/10 03:35:48;;;;;;;28.57;13.13;;;;;;;;;;5116517;28;20206;-58
2022/04/10 03:38:15;;;;;;;27.90;13.40;;;;;;;;;;5116164;28;20292;-59
2022/04/10 03:40:42;;;;;;;27.10;13.43;;;;;;;;;;5116598;28;20217;-58
2022/04/10 03:43:11;;;;;;;54.00;21.87;;;;;;;;;;5116951;28;20637;-59
2022/04/10 03:45:39;;;;;;;47.83;21.23;;;;;;;;;;5116205;28;20285;-58
2022/04/10 03:48:06;;;;;;;30.50;13.70;;;;;;;;;;5115987;28;20280;-61
2022/04/10 03:50:35;;;;;;;33.40;13.97;;;;;;;;;;5116166;28;20651;-59
2022/04/10 03:53:05;;;;;;;30.00;14.03;;;;;;;;;;5115847;28;20703;-59
2022/04/10 03:55:32;;;;;;;25.50;12.57;;;;;;;;;;5116081;28;20224;-59
2022/04/10 03:58:02;;;;;;;29.97;13.80;;;;;;;;;;5116065;28;20524;-59
2022/04/10 04:00:29;;;;;;;33.50;14.57;;;;;;;;;;5115925;28;20296;-58
2022/04/10 04:03:02;;;;;;;36.60;14.60;;;;;;;;;;5116011;28;20185;-61
2022/04/10 04:05:33;;;;;;;97.33;67.00;;;;;;;;;;5115971;28;20202;-59
2022/04/10 04:08:01;;;;;;;31.00;16.20;;;;;;;;;;5115810;28;20198;-59
2022/04/10 04:10:31;;;;;;;36.47;15.77;;;;;;;;;;5115606;28;20198;-58
2022/04/10 04:13:00;;;;;;;33.83;15.73;;;;;;;;;;5115736;28;20206;-58
2022/04/10 04:15:28;;;;;;;35.73;14.53;;;;;;;;;;5107677;28;20276;-59
2022/04/10 04:17:56;;;;;;;24.43;13.33;;;;;;;;;;5115084;28;20680;-58
2022/04/10 04:20:23;;;;;;;25.20;12.43;;;;;;;;;;5107103;28;20313;-59
2022/04/10 04:22:50;;;;;;;27.33;13.80;;;;;;;;;;5097755;28;20622;-59
2022/04/10 04:25:19;;;;;;;27.00;13.00;;;;;;;;;;5103890;28;20245;-55
2022/04/10 04:27:49;;;;;;;32.23;16.10;;;;;;;;;;5107137;28;20286;-60
2022/04/10 04:30:17;;;;;;;25.37;12.87;;;;;;;;;;5103295;28;20326;-59
2022/04/10 04:32:46;;;;;;;26.13;12.57;;;;;;;;;;5103125;28;20217;-59
2022/04/10 04:35:15;;;;;;;25.43;12.50;;;;;;;;;;5103821;28;20561;-59
2022/04/10 04:37:43;;;;;;;25.33;12.17;;;;;;;;;;5107547;28;20228;-59
2022/04/10 04:40:16;;;;;;;32.23;12.83;;;;;;;;;;5110566;28;20222;-58
2022/04/10 04:42:45;;;;;;;30.73;13.53;;;;;;;;;;5102531;28;20545;-55
2022/04/10 04:45:13;;;;;;;24.13;12.57;;;;;;;;;;5106826;28;20221;-57
2022/04/10 04:47:54;;;;;;;33.27;18.13;;;;;;;;;;5101991;28;20218;-58
2022/04/10 04:50:23;;;;;;;32.27;14.93;;;;;;;;;;5102259;28;20214;-56
2022/04/10 04:52:50;;;;;;;29.93;13.87;;;;;;;;;;5103422;28;20275;-60
2022/04/10 04:55:18;;;;;;;23.33;11.90;;;;;;;;;;5106356;28;20279;-58
2022/04/10 04:57:46;;;;;;;28.77;13.33;;;;;;;;;;5107657;27;20210;-59
2022/04/10 05:00:14;;;;;;;26.83;11.20;;;;;;;;;;5100509;28;20545;-60
2022/04/10 05:02:48;;;;;;;30.37;12.53;;;;;;;;;;5103527;28;20242;-58
2022/04/10 05:05:15;;;;;;;27.63;12.07;;;;;;;;;;5107175;28;20720;-59
2022/04/10 05:07:42;;;;;;;48.03;24.73;;;;;;;;;;5103568;28;20214;-59
2022/04/10 05:10:09;;;;;;;40.03;26.70;;;;;;;;;;5103530;28;20301;-58
2022/04/10 05:12:38;;;;;;;27.87;11.03;;;;;;;;;;5101924;28;20675;-57
2022/04/10 05:15:09;;;;;;;25.73;10.50;;;;;;;;;;5103059;28;20591;-56
2022/04/10 05:17:41;;;;;;;19.73;10.17;;;;;;;;;;5096336;28;20222;-58
2022/04/10 05:20:10;;;;;;;20.03;9.30;;;;;;;;;;5104322;28;20677;-59
2022/04/10 05:22:44;;;;;;;18.40;8.53;;;;;;;;;;5092863;28;20238;-58
2022/04/10 05:25:14;;;;;;;19.37;8.80;;;;;;;;;;5104866;28;20225;-59
2022/04/10 05:27:44;;;;;;;22.80;9.63;;;;;;;;;;5113549;28;20615;-58
2022/04/10 05:30:13;;;;;;;53.47;21.67;;;;;;;;;;5103125;28;20239;-59
2022/04/10 05:32:43;;;;;;;28.73;11.33;;;;;;;;;;5113667;28;20338;-58
2022/04/10 05:35:12;;;;;;;25.60;10.13;;;;;;;;;;5112540;27;20672;-55
2022/04/10 05:37:41;;;;;;;29.77;9.63;;;;;;;;;;5110576;28;20209;-59
2022/04/10 05:40:10;;;;;;;20.13;9.07;;;;;;;;;;5112002;28;20221;-56
2022/04/10 05:42:47;;;;;;;20.00;8.17;;;;;;;;;;5109344;28;20233;-58
2022/04/10 05:45:17;;;;;;;22.97;9.50;;;;;;;;;;5111582;28;20281;-58
2022/04/10 05:47:49;;;;;;;22.70;9.70;;;;;;;;;;5111918;28;20225;-59
2022/04/10 05:50:20;;;;;;;23.33;9.77;;;;;;;;;;5102302;28;20536;-59
2022/04/10 05:52:48;;;;;;;44.07;37.77;;;;;;;;;;5097836;28;20225;-57
2022/04/10 05:55:18;;;;;;;18.87;6.67;;;;;;;;;;5100761;28;20221;-59
2022/04/10 05:57:46;;;;;;;39.17;11.50;;;;;;;;;;5100964;28;20229;-58
2022/04/10 06:00:23;;;;;;;16.67;7.00;;;;;;;;;;5101148;28;20252;-58
2022/04/10 06:03:03;;;;;;;21.03;8.40;;;;;;;;;;5100126;28;20588;-57
2022/04/10 06:05:32;;;;;;;19.63;9.00;;;;;;;;;;5101008;28;20214;-58
2022/04/10 06:08:08;;;;;;;23.30;8.00;;;;;;;;;;5099216;28;20755;-58
2022/04/10 06:10:36;;;;;;;28.97;11.30;;;;;;;;;;5100244;28;20229;-59
2022/04/10 06:13:08;;;;;;;29.73;10.70;;;;;;;;;;5108290;28;20695;-58
2022/04/10 06:15:55;;;;;;;32.47;15.33;;;;;;;;;;5111075;28;20226;-58
2022/04/10 06:18:23;;;;;;;22.50;8.63;;;;;;;;;;5112660;27;20559;-59
2022/04/10 06:20:52;;;;;;;14.20;6.13;;;;;;;;;;5112228;28;20229;-59
2022/04/10 06:23:23;;;;;;;15.30;6.00;;;;;;;;;;5109812;28;20320;-59
2022/04/10 06:25:55;;;;;;;9.83;4.80;;;;;;;;;;5110669;28;20247;-59
2022/04/10 06:28:22;;;;;;;17.60;6.50;;;;;;;;;;5108260;28;20685;-61
2022/04/10 06:30:49;;;;;;;11.40;4.60;;;;;;;;;;5107666;28;20226;-59
2022/04/10 06:33:22;;;;;;;27.47;10.23;;;;;;;;;;5105666;28;20244;-59
2022/04/10 06:35:54;;;;;;;14.23;8.77;;;;;;;;;;5101520;28;20317;-59
2022/04/10 06:38:21;;;;;;;16.50;7.23;;;;;;;;;;5102283;28;20257;-60
2022/04/10 06:40:55;;;;;;;21.67;7.03;;;;;;;;;;5110949;28;20748;-59
2022/04/10 06:43:24;;;;;;;18.43;6.50;;;;;;;;;;5112298;28;20234;-59
2022/04/10 06:46:08;;;;;;;14.43;6.30;;;;;;;;;;5108996;28;20313;-58
2022/04/10 06:48:42;;;;;;;20.00;6.07;;;;;;;;;;5096269;28;20234;-59
2022/04/10 06:51:10;;;;;;;16.53;6.60;;;;;;;;;;5103725;28;20736;-61
2022/04/10 06:53:37;;;;;;;14.23;6.17;;;;;;;;;;5095811;28;20241;-60
2022/04/10 06:56:05;;;;;;;24.70;9.77;;;;;;;;;;5095801;28;20677;-62
2022/04/10 06:58:37;;;;;;;18.77;9.13;;;;;;;;;;5094915;28;20347;-61
2022/04/10 07:01:04;;;;;;;11.77;5.17;;;;;;;;;;5104423;28;20619;-62
2022/04/10 07:03:32;;;;;;;16.93;6.77;;;;;;;;;;5116125;28;20256;-61
2022/04/10 07:06:02;;;;;;;13.20;5.93;;;;;;;;;;5116612;28;20594;-63
2022/04/10 07:08:35;;;;;;;16.80;5.83;;;;;;;;;;5115906;28;20724;-61
2022/04/10 07:11:03;;;;;;;24.57;8.27;;;;;;;;;;5117372;28;20308;-59
2022/04/10 07:13:31;;;;;;;14.43;6.60;;;;;;;;;;5098708;28;20236;-62
2022/04/10 07:15:59;;;;;;;18.70;7.80;;;;;;;;;;5116334;28;20361;-61
2022/04/10 07:18:26;;;;;;;29.47;14.03;;;;;;;;;;5115272;28;20257;-60
2022/04/10 07:20:58;;;;;;;18.73;7.17;;;;;;;;;;5116344;28;20236;-65
2022/04/10 07:23:45;;;;;;;28.27;9.53;;;;;;;;;;5115346;27;20233;-64
2022/04/10 07:26:27;;;;;;;20.73;6.67;;;;;;;;;;5115886;28;20320;-60
2022/04/10 07:29:01;;;;;;;12.00;5.17;;;;;;;;;;5115644;28;20546;-60
2022/04/10 07:31:28;;;;;;;20.47;8.80;;;;;;;;;;5115318;28;20634;-59
2022/04/10 07:33:56;;;;;;;18.47;6.30;;;;;;;;;;5115664;28;20453;-62
2022/04/10 07:37:02;;;;;;;22.70;17.37;;;;;;;;;;5094579;28;20219;-59
2022/04/10 07:39:38;;;;;;;25.40;12.30;;;;;;;;;;5077951;28;20308;-60
2022/04/10 07:42:15;;;;;;;22.03;7.83;;;;;;;;;;5099625;28;20233;-61
2022/04/10 07:45:03;;;;;;;15.43;6.20;;;;;;;;;;5115021;28;20225;-55
2022/04/10 07:47:50;;;;;;;16.27;5.77;;;;;;;;;;5116640;28;20668;-60
2022/04/10 07:50:20;;;;;;;14.30;5.33;;;;;;;;;;5115131;28;20571;-61
2022/04/10 07:52:48;;;;;;;24.03;6.47;;;;;;;;;;5115490;28;20309;-60
2022/04/10 07:55:27;;;;;;;18.70;5.63;;;;;;;;;;5115295;28;20222;-61
2022/04/10 07:57:55;;;;;;;32.03;11.67;;;;;;;;;;5114974;28;20309;-62
2022/04/10 08:00:24;;;;;;;11.03;3.90;;;;;;;;;;5110629;28;20218;-61
2022/04/10 08:02:59;;;;;;;15.97;5.83;;;;;;;;;;5077588;28;20246;-59
2022/04/10 08:05:39;;;;;;;14.10;5.17;;;;;;;;;;5076875;28;20323;-59
2022/04/10 08:08:18;;;;;;;14.10;4.60;;;;;;;;;;5093810;28;20311;-61
2022/04/10 08:10:46;;;;;;;15.73;5.40;;;;;;;;;;5093596;28;20250;-58
2022/04/10 08:13:13;;;;;;;23.60;8.50;;;;;;;;;;5092028;28;20222;-59
2022/04/10 08:15:40;;;;;;;23.93;6.63;;;;;;;;;;5093229;28;20314;-58
2022/04/10 08:18:10;;;;;;;22.88;6.70;;;;;;;;;;5093325;28;20222;-59
2022/04/10 08:20:37;;;;;;;14.68;7.85;;;;;;;;;;5093412;28;20295;-59
2022/04/10 08:23:05;;;;;;;20.45;8.35;;;;;;;;;;5093798;28;20352;-58
2022/04/10 08:25:32;;;;;;;22.30;7.07;;;;;;;;;;5093235;28;20254;-59
2022/04/10 08:28:00;;;;;;;13.07;4.97;;;;;;;;;;5093203;28;20747;-58
2022/04/10 08:30:27;;;;;;;15.87;5.50;;;;;;;;;;5096249;28;20851;-59
2022/04/10 08:32:54;;;;;;;21.73;7.20;;;;;;;;;;5115952;28;20218;-59
2022/04/10 08:35:21;;;;;;;16.87;5.80;;;;;;;;;;5114699;27;20249;-59
2022/04/10 08:37:48;;;;;;;15.82;4.57;;;;;;;;;;5115502;28;20771;-59
2022/04/10 08:40:15;;;;;;;8.57;3.93;;;;;;;;;;5115024;27;20304;-59
2022/04/10 08:42:43;;;;;;;12.63;4.40;;;;;;;;;;5114933;28;20226;-58
2022/04/10 08:45:10;;;;;;;14.57;3.47;;;;;;;;;;5115001;27;20226;-59
2022/04/10 08:47:40;;;;;;;15.17;5.13;;;;;;;;;;5115549;28;20221;-59
2022/04/10 08:50:08;;;;;;;17.17;4.73;;;;;;;;;;5115289;27;20316;-58
2022/04/10 08:52:35;;;;;;;14.83;4.40;;;;;;;;;;5115208;28;20732;-58
2022/04/10 08:55:03;;;;;;;14.80;4.27;;;;;;;;;;5114472;28;20242;-59
2022/04/10 08:57:30;;;;;;;9.67;2.80;;;;;;;;;;5114417;28;20626;-59
2022/04/10 09:00:00;;;;;;;19.00;14.53;;;;;;;;;;5114892;27;20230;-59
2022/04/10 09:02:27;;;;;;;21.17;5.47;;;;;;;;;;5094512;28;20307;-59
2022/04/10 09:04:55;;;;;;;12.33;3.37;;;;;;;;;;5095113;27;20218;-60
2022/04/10 09:07:22;;;;;;;12.50;4.30;;;;;;;;;;5103634;28;20221;-61
2022/04/10 09:09:54;;;;;;;13.27;4.40;;;;;;;;;;5111926;28;20287;-61
2022/04/10 09:12:22;;;;;;;15.68;4.15;;;;;;;;;;5112824;28;20226;-61
2022/04/10 09:14:50;;;;;;;11.70;3.58;;;;;;;;;;5114415;28;20224;-62
2022/04/10 09:17:19;;;;;;;14.63;4.20;;;;;;;;;;5113399;27;20221;-61
2022/04/10 09:19:48;;;;;;;10.52;3.00;;;;;;;;;;5102951;28;20296;-61
2022/04/10 09:22:23;;;;;;;13.93;4.05;;;;;;;;;;5106424;28;20240;-59
2022/04/10 09:25:23;;;;;;;16.27;6.10;;;;;;;;;;5112609;28;20660;-59
2022/04/10 09:27:51;;;;;;;14.25;4.65;;;;;;;;;;5110725;28;20218;-59
2022/04/10 09:30:20;;;;;;;8.55;3.17;;;;;;;;;;5110145;27;20230;-59
2022/04/10 09:32:51;;;;;;;10.80;3.88;;;;;;;;;;5113021;28;21522;-60
2022/04/10 09:35:21;;;;;;;9.68;3.40;;;;;;;;;;5110982;28;20214;-60
2022/04/10 09:37:49;;;;;;;11.75;3.72;;;;;;;;;;5113103;28;20564;-60
2022/04/10 09:40:35;;;;;;;7.85;2.78;;;;;;;;;;5113778;28;20312;-60
2022/04/10 09:43:04;;;;;;;7.47;2.53;;;;;;;;;;5114505;28;20316;-57
2022/04/10 09:45:43;;;;;;;11.65;3.20;;;;;;;;;;5113867;28;20250;-59
2022/04/10 09:48:29;;;;;;;16.58;3.92;;;;;;;;;;5114233;28;20274;-58
2022/04/10 09:50:58;;;;;;;13.68;5.15;;;;;;;;;;5113826;27;20226;-58
2022/04/10 09:53:27;;;;;;;13.10;4.38;;;;;;;;;;5114334;28;20305;-59
2022/04/10 09:55:56;;;;;;;5.30;2.40;;;;;;;;;;5112506;27;20694;-59
2022/04/10 09:58:25;;;;;;;8.52;2.15;;;;;;;;;;5112171;28;20228;-59
2022/04/10 10:00:54;;;;;;;7.60;2.40;;;;;;;;;;5111250;27;20248;-59
2022/04/10 10:03:28;;;;;;;8.85;2.97;;;;;;;;;;5112825;28;22011;-59
2022/04/10 10:05:56;;;;;;;10.40;2.85;;;;;;;;;;5110285;28;20229;-61
2022/04/10 10:08:25;;;;;;;9.55;2.50;;;;;;;;;;5112641;28;20267;-60
2022/04/10 10:10:52;;;;;;;10.40;2.60;;;;;;;;;;5112875;28;20221;-60
2022/04/10 10:13:26;;;;;;;8.35;3.28;;;;;;;;;;5111270;28;20301;-60
2022/04/10 10:15:57;;;;;;;7.05;2.38;;;;;;;;;;5112059;28;20218;-59
2022/04/10 10:18:25;;;;;;;9.02;2.88;;;;;;;;;;5112808;28;20713;-60
2022/04/10 10:20:52;;;;;;;10.40;4.32;;;;;;;;;;5112629;27;20342;-60
2022/04/10 10:23:22;;;;;;;6.10;2.13;;;;;;;;;;5116315;28;20234;-60
2022/04/10 10:26:39;;;;;;;8.10;2.13;;;;;;;;;;5116255;27;20224;-59
2022/04/10 10:29:21;;;;;;;7.40;2.10;;;;;;;;;;5066680;28;20600;-60
2022/04/10 10:32:06;;;;;;;7.72;3.03;;;;;;;;;;5065351;28;20684;-60
2022/04/10 10:34:34;;;;;;;6.55;2.10;;;;;;;;;;5064277;28;20226;-61
2022/04/10 10:37:02;;;;;;;5.50;2.22;;;;;;;;;;5048136;28;20741;-60
2022/04/10 10:39:30;;;;;;;5.30;2.15;;;;;;;;;;5072466;28;20227;-59
2022/04/10 10:42:11;;;;;;;5.40;2.10;;;;;;;;;;5064065;28;20638;-59
2022/04/10 10:44:39;;;;;;;4.57;1.70;;;;;;;;;;5061143;28;20298;-59
2022/04/10 10:47:15;;;;;;;15.13;4.30;;;;;;;;;;5062686;28;20219;-59
2022/04/10 10:49:45;;;;;;;6.88;2.00;;;;;;;;;;5065435;28;20298;-62
2022/04/10 10:52:13;;;;;;;9.35;2.35;;;;;;;;;;5061989;28;20748;-58
2022/04/10 10:54:54;;;;;;;7.88;2.17;;;;;;;;;;5065475;28;20227;-62
2022/04/10 10:57:26;;;;;;;6.25;3.20;;;;;;;;;;5062365;28;20246;-59
2022/04/10 11:00:22;;;;;;;8.68;3.00;;;;;;;;;;5088043;28;20497;-59
2022/04/10 11:02:52;;;;;;;11.88;2.00;;;;;;;;;;5104160;28;20317;-59
2022/04/10 11:05:28;;;;;;;10.82;2.05;;;;;;;;;;5113477;28;20687;-59
2022/04/10 11:08:00;;;;;;;5.90;2.00;;;;;;;;;;5109407;27;20228;-60
2022/04/10 11:10:29;;;;;;;8.98;2.38;;;;;;;;;;5115697;28;21105;-61
2022/04/10 11:13:01;;;;;;;4.25;2.17;;;;;;;;;;5115412;27;20234;-59
2022/04/10 11:15:54;;;;;;;10.63;2.83;;;;;;;;;;5106798;28;20214;-60
2022/04/10 11:18:22;;;;;;;8.55;2.05;;;;;;;;;;5110726;27;20842;-61
2022/04/10 11:20:54;;;;;;;8.05;1.52;;;;;;;;;;5116086;28;20286;-61
2022/04/10 11:23:28;;;;;;;4.78;1.98;;;;;;;;;;5113421;28;20244;-60
2022/04/10 11:26:02;;;;;;;6.40;1.60;;;;;;;;;;5115372;28;20210;-60
2022/04/10 11:28:30;;;;;;;9.30;2.57;;;;;;;;;;5115139;27;20213;-60
2022/04/10 11:31:01;;;;;;;7.37;1.77;;;;;;;;;;5108952;28;20309;-59
2022/04/10 11:33:47;;;;;;;8.05;2.03;;;;;;;;;;5114632;27;20218;-60
2022/04/10 11:36:17;;;;;;;6.47;1.95;;;;;;;;;;5114879;28;20218;-59
2022/04/10 11:39:10;;;;;;;11.85;8.93;;;;;;;;;;5105825;28;20214;-59
2022/04/10 11:41:38;;;;;;;10.63;2.17;;;;;;;;;;5102262;28;20625;-59
2022/04/10 11:44:07;;;;;;;4.47;1.67;;;;;;;;;;5114791;28;20253;-60
2022/04/10 11:46:34;;;;;;;7.13;1.80;;;;;;;;;;5112628;28;20249;-62
2022/04/10 11:49:02;;;;;;;6.55;1.88;;;;;;;;;;5115124;27;20218;-59
2022/04/10 11:51:30;;;;;;;6.50;2.00;;;;;;;;;;5114225;28;20221;-61
2022/04/10 11:54:00;;;;;;;4.40;1.85;;;;;;;;;;5115049;27;20213;-59
2022/04/10 11:56:27;;;;;;;8.07;3.00;;;;;;;;;;5112622;28;20214;-59
2022/04/10 11:58:54;;;;;;;7.22;2.35;;;;;;;;;;5101868;28;20546;-59
2022/04/10 12:01:21;;;;;;;5.15;2.63;;;;;;;;;;5109558;28;20617;-60
2022/04/10 12:03:51;;;;;;;5.53;1.92;;;;;;;;;;5110789;27;20395;-60
2022/04/10 12:06:20;;;;;;;5.72;1.80;;;;;;;;;;5108728;28;20222;-61
2022/04/10 12:08:48;;;;;;;5.53;2.20;;;;;;;;;;5110539;28;20273;-60
2022/04/10 12:11:15;;;;;;;5.03;2.30;;;;;;;;;;5104905;28;20375;-59
2022/04/10 12:13:42;;;;;;;7.53;3.63;;;;;;;;;;5114320;27;20242;-59
2022/04/10 12:16:11;;;;;;;6.88;2.65;;;;;;;;;;5115729;28;20237;-59
2022/04/10 12:18:48;;;;;;;6.55;3.28;;;;;;;;;;5115436;28;20243;-59
2022/04/10 12:21:16;;;;;;;6.45;2.55;;;;;;;;;;5115807;28;20229;-59
2022/04/10 12:23:43;;;;;;;5.88;2.42;;;;;;;;;;5113570;28;20230;-60
2022/04/10 12:26:10;;;;;;;4.80;2.25;;;;;;;;;;5114066;28;20279;-58
2022/04/10 12:28:38;;;;;;;6.97;3.22;;;;;;;;;;5111370;28;20214;-59
2022/04/10 12:31:06;;;;;;;7.57;2.73;;;;;;;;;;5111092;27;20822;-59
2022/04/10 12:33:33;;;;;;;20.58;6.53;;;;;;;;;;5112859;28;20226;-60
2022/04/10 12:36:15;;;;;;;6.65;2.40;;;;;;;;;;5113188;28;20271;-60
2022/04/10 12:38:43;;;;;;;9.52;2.85;;;;;;;;;;5111855;28;20375;-60
2022/04/10 12:41:10;;;;;;;7.68;2.33;;;;;;;;;;5113625;28;20221;-60
2022/04/10 12:43:37;;;;;;;7.15;3.38;;;;;;;;;;5109954;28;20226;-60
2022/04/10 12:46:12;;;;;;;8.85;4.50;;;;;;;;;;5113789;28;20214;-59
2022/04/10 12:48:39;;;;;;;6.15;1.60;;;;;;;;;;5108250;28;20706;-60
2022/04/10 12:51:07;;;;;;;5.97;1.98;;;;;;;;;;5114039;28;20226;-60
2022/04/10 12:53:35;;;;;;;5.10;2.17;;;;;;;;;;5110594;27;20234;-60
2022/04/10 12:56:04;;;;;;;3.67;1.60;;;;;;;;;;5113298;28;20241;-59
2022/04/10 12:58:47;;;;;;;8.35;3.38;;;;;;;;;;5110328;28;20736;-59
2022/04/10 13:01:32;;;;;;;5.72;1.88;;;;;;;;;;5111660;28;20236;-59
2022/04/10 13:04:01;;;;;;;9.70;2.88;;;;;;;;;;5108321;27;20244;-59
2022/04/10 13:06:51;;;;;;;8.40;2.70;;;;;;;;;;5110653;28;20218;-59
2022/04/10 13:09:18;;;;;;;10.27;1.93;;;;;;;;;;5110768;28;20324;-60
2022/04/10 13:11:46;;;;;;;5.70;2.10;;;;;;;;;;5112779;28;20684;-60
2022/04/10 13:14:16;;;;;;;8.07;2.60;;;;;;;;;;5113069;28;20683;-62
2022/04/10 13:16:49;;;;;;;6.45;2.08;;;;;;;;;;5113537;28;20240;-61
2022/04/10 13:19:17;;;;;;;7.23;2.93;;;;;;;;;;5113853;27;20557;-59
2022/04/10 13:21:45;;;;;;;10.33;3.07;;;;;;;;;;5100373;28;20242;-58
2022/04/10 13:24:15;;;;;;;7.00;2.70;;;;;;;;;;5112656;28;20257;-59
2022/04/10 13:26:42;;;;;;;8.88;2.85;;;;;;;;;;5113591;28;20222;-61
2022/04/10 13:29:15;;;;;;;5.28;2.67;;;;;;;;;;5114034;27;20312;-58
2022/04/10 13:31:42;;;;;;;10.32;3.20;;;;;;;;;;5100002;28;20325;-60
2022/04/10 13:34:09;;;;;;;9.67;2.80;;;;;;;;;;5092473;28;20313;-58
2022/04/10 13:36:42;;;;;;;8.63;3.05;;;;;;;;;;5110728;28;20298;-59
2022/04/10 13:39:09;;;;;;;7.78;1.92;;;;;;;;;;5112539;27;20249;-59
2022/04/10 13:41:36;;;;;;;7.78;2.15;;;;;;;;;;5113234;28;20745;-58
2022/04/10 13:44:07;;;;;;;5.10;2.25;;;;;;;;;;5110209;28;20246;-59
2022/04/10 13:46:34;;;;;;;5.97;2.22;;;;;;;;;;5113439;28;20221;-61
2022/04/10 13:49:02;;;;;;;6.07;2.37;;;;;;;;;;5103863;28;20301;-59
2022/04/10 13:51:29;;;;;;;5.93;2.33;;;;;;;;;;5097542;28;20309;-59
2022/04/10 13:53:57;;;;;;;9.32;2.63;;;;;;;;;;5100780;27;20215;-59
2022/04/10 13:56:24;;;;;;;7.93;3.17;;;;;;;;;;5104803;28;20219;-58
2022/04/10 13:58:51;;;;;;;11.18;4.53;;;;;;;;;;5106568;28;20333;-59
2022/04/10 14:01:18;;;;;;;10.27;4.18;;;;;;;;;;5106370;27;20308;-59
2022/04/10 14:03:45;;;;;;;11.53;4.50;;;;;;;;;;5105044;28;20306;-60
2022/04/10 14:06:13;;;;;;;11.40;4.03;;;;;;;;;;5103750;28;20669;-59
2022/04/10 14:08:41;;;;;;;10.33;3.70;;;;;;;;;;5105750;28;20221;-59
2022/04/10 14:11:19;;;;;;;9.00;3.30;;;;;;;;;;5104871;28;20245;-59
2022/04/10 14:13:46;;;;;;;13.47;3.77;;;;;;;;;;5105108;28;20250;-60
2022/04/10 14:16:14;;;;;;;11.50;3.43;;;;;;;;;;5104144;28;20218;-60
2022/04/10 14:18:41;;;;;;;9.73;3.55;;;;;;;;;;5104345;28;20236;-59
2022/04/10 14:21:08;;;;;;;10.30;3.70;;;;;;;;;;5104648;27;20322;-59
2022/04/10 14:23:35;;;;;;;13.50;4.67;;;;;;;;;;5104735;28;20314;-59
2022/04/10 14:26:05;;;;;;;9.00;3.60;;;;;;;;;;5114645;27;20289;-55
2022/04/10 14:28:36;;;;;;;12.95;3.78;;;;;;;;;;5107497;28;20214;-57
2022/04/10 14:31:04;;;;;;;11.50;3.50;;;;;;;;;;5103097;27;20242;-58
2022/04/10 14:33:32;;;;;;;11.03;3.17;;;;;;;;;;5091823;28;20337;-61
2022/04/10 14:36:00;;;;;;;12.30;4.18;;;;;;;;;;5099705;27;20233;-60
2022/04/10 14:38:31;;;;;;;11.57;4.00;;;;;;;;;;5105365;28;20214;-57
2022/04/10 14:40:58;;;;;;;14.73;4.68;;;;;;;;;;5099757;27;20321;-59
2022/04/10 14:43:26;;;;;;;7.07;3.27;;;;;;;;;;5110622;28;20225;-59
2022/04/10 14:45:53;;;;;;;14.65;3.88;;;;;;;;;;5116385;27;20226;-60